Time;durP1;ratioP1;P1;durP2;ratioP2;P2;SDS_P1;SDS_P2;PMS_P1;PMS_P2;Temp;Humidity;BMP_temperature;BMP_pressure;BME280_temperature;BME280_humidity;BME280_pressure;Samples;Min_cycle;Max_cycle;Signal;HPM_P1;HPM_P2
2022/02/23 00:00:20;;;;;;;17.55;3.95;;;;;;;8.79;100.00;99402.31;5064199;28;20052;-70
2022/02/23 00:02:46;;;;;;;14.13;4.18;;;;;;;8.82;100.00;99399.69;5062906;28;20024;-70
2022/02/23 00:05:11;;;;;;;9.95;3.72;;;;;;;8.79;100.00;99401.44;5064337;28;20025;-70
2022/02/23 00:07:36;;;;;;;8.45;2.90;;;;;;;8.79;100.00;99412.81;5064154;28;20036;-70
2022/02/23 00:10:03;;;;;;;12.50;3.15;;;;;;;8.78;100.00;99413.69;5064058;28;20033;-70
2022/02/23 00:12:29;;;;;;;11.98;3.28;;;;;;;8.85;100.00;99418.94;5063951;28;20024;-70
2022/02/23 00:14:57;;;;;;;12.30;3.30;;;;;;;8.81;100.00;99428.56;5063935;28;20024;-70
2022/02/23 00:17:25;;;;;;;5.65;3.10;;;;;;;8.79;100.00;99451.28;5056548;28;20335;-70
2022/02/23 00:19:54;;;;;;;7.60;2.72;;;;;;;8.86;100.00;99441.69;5064033;28;20021;-70
2022/02/23 00:22:20;;;;;;;10.23;2.50;;;;;;;8.90;100.00;99496.81;5063980;28;20102;-70
2022/02/23 00:24:45;;;;;;;6.07;1.80;;;;;;;8.88;100.00;99508.19;5063559;28;20037;-70
2022/02/23 00:27:11;;;;;;;3.85;1.48;;;;;;;8.77;100.00;99511.66;5063835;28;20062;-70
2022/02/23 00:29:37;;;;;;;4.95;1.70;;;;;;;8.76;98.34;99519.53;5063801;28;20032;-70
2022/02/23 00:32:03;;;;;;;5.00;1.55;;;;;;;8.70;97.07;99520.41;5063844;28;20025;-70
2022/02/23 00:34:29;;;;;;;2.33;1.20;;;;;;;8.66;96.59;99513.41;5063586;28;20040;-70
2022/02/23 00:36:55;;;;;;;6.75;1.02;;;;;;;8.56;96.31;99532.63;5063810;28;20031;-70
2022/02/23 00:39:24;;;;;;;3.28;0.98;;;;;;;8.50;97.17;99532.59;5063792;28;20029;-70
2022/02/23 00:41:51;;;;;;;5.80;1.10;;;;;;;8.46;97.64;99525.63;5063568;28;20029;-70
2022/02/23 00:44:16;;;;;;;2.78;1.05;;;;;;;8.41;96.25;99531.69;5063620;28;20021;-70
2022/02/23 00:46:42;;;;;;;11.90;1.25;;;;;;;8.32;96.36;99529.91;5063607;28;20324;-70
2022/02/23 00:49:08;;;;;;;4.72;1.17;;;;;;;8.22;96.90;99536.00;5063649;28;20017;-70
2022/02/23 00:51:34;;;;;;;2.00;0.93;;;;;;;8.15;97.31;99538.53;5063694;28;20324;-70
2022/02/23 00:54:00;;;;;;;7.80;1.10;;;;;;;8.12;96.77;99531.56;5063470;28;20209;-70
2022/02/23 00:56:25;;;;;;;4.20;0.98;;;;;;;8.07;96.95;99535.88;5063552;28;20241;-70
2022/02/23 00:58:51;;;;;;;4.63;1.00;;;;;;;7.97;97.31;99544.56;5063340;28;20044;-70
2022/02/23 01:01:17;;;;;;;4.15;1.02;;;;;;;7.92;97.24;99543.69;5063329;28;20020;-70
2022/02/23 01:03:43;;;;;;;3.05;0.95;;;;;;;7.84;98.11;99548.00;5063354;28;20248;-70
2022/02/23 01:06:08;;;;;;;6.40;1.08;;;;;;;7.85;98.46;99554.13;5063500;28;20021;-70
2022/02/23 01:08:34;;;;;;;7.85;0.95;;;;;;;7.84;97.24;99548.00;5063276;28;20092;-70
2022/02/23 01:10:59;;;;;;;3.45;0.93;;;;;;;7.86;97.11;99564.63;5063451;28;20028;-70
2022/02/23 01:13:25;;;;;;;2.97;1.10;;;;;;;7.77;98.05;99561.94;5063338;28;20039;-70
2022/02/23 01:15:50;;;;;;;5.53;1.13;;;;;;;7.62;98.18;99556.59;5062936;28;20082;-70
2022/02/23 01:18:16;;;;;;;1.17;0.73;;;;;;;7.50;98.47;99560.88;5063379;28;20048;-70
2022/02/23 01:20:41;;;;;;;2.28;0.88;;;;;;;7.33;98.90;99558.13;5063240;28;20044;-70
2022/02/23 01:23:07;;;;;;;2.35;1.08;;;;;;;7.23;99.65;99566.75;5063179;28;20021;-70
2022/02/23 01:25:33;;;;;;;1.33;0.70;;;;;;;7.19;99.94;99564.09;5063120;28;20033;-70
2022/02/23 01:28:01;;;;;;;3.97;0.68;;;;;;;7.19;100.00;99570.22;5063373;28;20228;-70
2022/02/23 01:30:27;;;;;;;2.38;0.55;;;;;;;7.15;100.00;99572.81;5062990;28;20048;-70
2022/02/23 01:32:52;;;;;;;1.15;0.55;;;;;;;7.16;100.00;99585.91;5063209;28;20017;-70
2022/02/23 01:35:18;;;;;;;8.20;0.98;;;;;;;7.15;100.00;99594.59;5063454;28;20221;-70
2022/02/23 01:37:44;;;;;;;1.75;0.80;;;;;;;7.14;100.00;99595.47;5065921;28;20025;-70
2022/02/23 01:40:11;;;;;;;0.80;0.70;;;;;;;7.17;100.00;99603.38;5066927;28;20020;-70
2022/02/23 01:42:36;;;;;;;4.15;0.75;;;;;;;7.17;100.00;99602.47;5066778;28;20246;-70
2022/02/23 01:45:02;;;;;;;2.97;0.75;;;;;;;7.18;100.00;99614.72;5066891;28;20032;-70
2022/02/23 01:47:28;;;;;;;3.85;0.85;;;;;;;7.17;100.00;99618.19;5066905;28;20024;-70
2022/02/23 01:49:56;;;;;;;1.17;0.73;;;;;;;7.12;100.00;99620.75;5066802;28;20040;-70
2022/02/23 01:52:25;;;;;;;8.50;1.15;;;;;;;7.03;100.00;99628.53;5066723;28;21213;-70
2022/02/23 01:54:54;;;;;;;5.70;1.25;;;;;;;6.95;100.00;99632.81;5067018;28;20083;-70
2022/02/23 01:57:20;;;;;;;1.88;0.95;;;;;;;6.96;100.00;99639.78;5066569;28;20028;-70
2022/02/23 01:59:46;;;;;;;15.57;8.00;;;;;;;6.94;100.00;99635.41;5066481;28;20060;-70
2022/02/23 02:02:12;;;;;;;13.57;6.30;;;;;;;6.91;100.00;99631.03;5066641;28;20044;-70
2022/02/23 02:04:37;;;;;;;11.75;5.75;;;;;;;6.92;100.00;99635.38;5066443;28;20048;-70
2022/02/23 02:07:03;;;;;;;13.10;4.55;;;;;;;6.89;100.00;99643.19;5066526;28;20317;-70
2022/02/23 02:09:29;;;;;;;5.85;2.55;;;;;;;6.86;100.00;99651.00;5066379;28;20029;-70
2022/02/23 02:11:54;;;;;;;9.20;2.28;;;;;;;6.85;100.00;99641.41;5066397;28;20021;-70
2022/02/23 02:14:19;;;;;;;14.25;5.22;;;;;;;6.84;100.00;99644.00;5066355;28;20122;-70
2022/02/23 02:16:45;;;;;;;12.80;3.65;;;;;;;6.82;100.00;99656.19;5066273;28;20025;-70
2022/02/23 02:19:10;;;;;;;9.63;2.42;;;;;;;6.82;100.00;99657.06;5066158;28;20032;-70
2022/02/23 02:21:58;;;;;;;4.47;2.33;;;;;;;6.81;100.00;99665.78;5066542;28;20025;-70
2022/02/23 02:24:33;;;;;;;2.97;1.95;;;;;;;6.79;100.00;99667.50;5066120;28;20048;-70
2022/02/23 02:27:00;;;;;;;8.05;1.88;;;;;;;6.74;100.00;99674.41;5066399;28;20308;-70
2022/02/23 02:29:26;;;;;;;6.55;1.63;;;;;;;6.70;100.00;99672.63;5066116;28;20065;-70
2022/02/23 02:31:51;;;;;;;9.60;1.58;;;;;;;6.59;100.00;99684.69;5066029;28;20047;-70
2022/02/23 02:34:20;;;;;;;3.58;1.17;;;;;;;6.35;100.00;99669.56;5065879;28;20017;-70
2022/02/23 02:36:48;;;;;;;1.67;1.00;;;;;;;6.23;100.00;99668.50;5066019;28;20021;-70
2022/02/23 02:39:15;;;;;;;7.47;1.33;;;;;;;6.13;100.00;99682.28;5065853;28;20025;-70
2022/02/23 02:41:41;;;;;;;1.45;0.70;;;;;;;6.06;100.00;99685.69;5065803;28;20029;-70
2022/02/23 02:44:06;;;;;;;2.67;0.60;;;;;;;5.91;100.00;99685.44;5065680;28;20338;-70
2022/02/23 02:46:32;;;;;;;0.70;0.57;;;;;;;5.74;100.00;99676.44;5065578;28;20017;-70
2022/02/23 02:48:58;;;;;;;4.43;1.08;;;;;;;5.59;100.00;99671.81;5065572;28;20347;-70
2022/02/23 02:51:23;;;;;;;1.55;0.60;;;;;;;5.54;100.00;99677.84;5065515;28;20331;-70
2022/02/23 02:53:49;;;;;;;7.30;0.98;;;;;;;5.46;100.00;99689.88;5065608;28;20028;-70
2022/02/23 02:56:15;;;;;;;6.65;1.20;;;;;;;5.31;100.00;99684.41;5065493;28;20298;-70
2022/02/23 02:58:40;;;;;;;1.13;0.73;;;;;;;5.24;100.00;99699.06;5065257;28;20110;-70
2022/02/23 03:01:06;;;;;;;3.00;0.77;;;;;;;5.15;100.00;99705.81;5065672;28;20047;-70
2022/02/23 03:03:31;;;;;;;4.57;0.82;;;;;;;5.02;100.00;99706.44;5065160;28;20075;-70
2022/02/23 03:05:57;;;;;;;4.18;0.93;;;;;;;4.96;100.00;99706.31;5065403;28;20363;-70
2022/02/23 03:08:22;;;;;;;1.98;0.80;;;;;;;4.88;100.00;99707.91;5065423;28;20024;-70
2022/02/23 03:10:48;;;;;;;3.67;1.23;;;;;;;4.84;100.00;99713.91;5065283;28;20032;-70
2022/02/23 03:13:13;;;;;;;0.35;0.35;;;;;;;4.70;100.00;99715.34;5065518;28;20012;-70
2022/02/23 03:15:38;;;;;;;1.73;0.70;;;;;;;4.65;100.00;99719.59;5065208;28;20256;-70
2022/02/23 03:18:05;;;;;;;5.10;0.88;;;;;;;4.61;100.00;99722.97;5065039;28;20028;-70
2022/02/23 03:20:32;;;;;;;0.98;0.63;;;;;;;4.62;100.00;99722.13;5065132;28;20025;-70
2022/02/23 03:22:57;;;;;;;4.00;0.90;;;;;;;4.53;100.00;99728.91;5065293;28;20225;-70
2022/02/23 03:25:23;;;;;;;2.38;1.17;;;;;;;4.40;100.00;99729.47;5064818;28;20090;-70
2022/02/23 03:27:48;;;;;;;3.17;1.20;;;;;;;4.38;100.00;99731.19;5064868;28;20070;-70
2022/02/23 03:30:14;;;;;;;4.78;1.70;;;;;;;4.35;100.00;99738.03;5064968;28;20021;-70
2022/02/23 03:32:40;;;;;;;6.70;1.67;;;;;;;4.28;100.00;99744.81;5065185;28;20024;-70
2022/02/23 03:35:06;;;;;;;3.15;1.10;;;;;;;4.18;100.00;99750.69;5064936;28;20021;-70
2022/02/23 03:37:32;;;;;;;2.53;0.80;;;;;;;4.14;100.00;99756.66;5064939;28;20025;-70
2022/02/23 03:39:58;;;;;;;1.88;1.30;;;;;;;4.13;100.00;99760.13;5064656;28;20040;-70
2022/02/23 03:42:23;;;;;;;2.58;0.85;;;;;;;4.15;100.00;99762.78;5064601;28;20045;-70
2022/02/23 03:44:49;;;;;;;4.82;1.65;;;;;;;4.01;100.00;99761.53;5064652;28;20087;-70
2022/02/23 03:47:14;;;;;;;4.00;1.52;;;;;;;3.96;100.00;99760.56;5064550;28;20317;-70
2022/02/23 03:49:40;;;;;;;6.63;1.00;;;;;;;3.91;100.00;99768.25;5064728;28;20074;-70
2022/02/23 03:52:06;;;;;;;2.08;1.10;;;;;;;3.90;100.00;99766.47;5064496;28;20025;-70
2022/02/23 03:54:31;;;;;;;2.88;1.33;;;;;;;3.80;100.00;99767.09;5064441;28;20025;-70
2022/02/23 03:56:57;;;;;;;3.13;1.40;;;;;;;3.63;100.00;99784.03;5064432;28;20013;-70
2022/02/23 03:59:22;;;;;;;3.22;0.85;;;;;;;3.58;100.00;99783.00;5063698;28;20036;-70
2022/02/23 04:01:48;;;;;;;2.30;1.17;;;;;;;3.54;100.00;99782.91;5064197;28;20031;-70
2022/02/23 04:04:16;;;;;;;8.82;1.92;;;;;;;3.54;100.00;99785.50;5064185;28;20093;-70
2022/02/23 04:06:42;;;;;;;2.38;1.63;;;;;;;3.52;100.00;99792.41;5064195;28;20070;-70
2022/02/23 04:09:09;;;;;;;1.40;1.00;;;;;;;3.47;100.00;99789.66;5064138;28;20079;-70
2022/02/23 04:11:34;;;;;;;1.83;1.42;;;;;;;3.41;100.00;99789.50;5064267;28;20080;-70
2022/02/23 04:14:00;;;;;;;7.22;2.15;;;;;;;3.42;100.00;99796.44;5064121;28;20020;-70
2022/02/23 04:16:26;;;;;;;8.95;1.95;;;;;;;3.34;100.00;99792.78;5063961;28;20029;-70
2022/02/23 04:18:53;;;;;;;9.60;1.73;;;;;;;3.25;100.00;99805.53;5064107;28;20027;-70
2022/02/23 04:21:18;;;;;;;2.28;1.10;;;;;;;3.07;100.00;99811.94;5064085;28;20272;-70
2022/02/23 04:23:45;;;;;;;1.75;1.27;;;;;;;2.97;100.00;99821.19;5063689;28;20033;-70
2022/02/23 04:26:16;;;;;;;6.78;1.70;;;;;;;3.06;100.00;99821.44;5064008;28;20052;-70
2022/02/23 04:28:41;;;;;;;2.80;1.48;;;;;;;3.08;100.00;99818.91;5063902;28;20044;-70
2022/02/23 04:31:07;;;;;;;2.70;1.73;;;;;;;3.13;100.00;99822.53;5063896;28;20020;-70
2022/02/23 04:33:32;;;;;;;1.67;1.10;;;;;;;3.08;100.00;99814.59;5063872;28;20108;-70
2022/02/23 04:35:58;;;;;;;1.48;1.00;;;;;;;3.01;100.00;99820.41;5063706;28;20048;-70
2022/02/23 04:38:23;;;;;;;5.22;1.45;;;;;;;3.00;100.00;99815.22;5063765;28;20240;-70
2022/02/23 04:40:49;;;;;;;3.40;1.80;;;;;;;2.92;100.00;99807.19;5063735;28;20032;-70
2022/02/23 04:43:16;;;;;;;6.15;2.47;;;;;;;2.85;100.00;99815.59;5063596;28;20071;-70
2022/02/23 04:45:42;;;;;;;4.50;1.80;;;;;;;2.72;100.00;99808.28;5063649;28;20035;-70
2022/02/23 04:48:08;;;;;;;3.35;1.70;;;;;;;2.69;100.00;99813.38;5063512;28;20040;-70
2022/02/23 04:50:34;;;;;;;7.32;2.00;;;;;;;2.66;100.00;99812.44;5062291;28;20330;-70
2022/02/23 04:53:01;;;;;;;5.15;1.30;;;;;;;2.66;100.00;99802.91;5062498;28;20088;-70
2022/02/23 04:55:26;;;;;;;3.47;1.70;;;;;;;2.69;100.00;99803.00;5062473;28;20028;-70
2022/02/23 04:57:52;;;;;;;3.20;1.67;;;;;;;2.46;100.00;99814.41;5062622;28;20214;-70
2022/02/23 05:00:17;;;;;;;3.95;1.77;;;;;;;2.42;100.00;99833.34;5062281;28;20045;-70
2022/02/23 05:02:43;;;;;;;4.32;2.05;;;;;;;2.53;100.00;99837.16;5061962;28;20321;-70
2022/02/23 05:05:08;;;;;;;2.03;1.48;;;;;;;2.52;100.00;99827.59;5062573;28;20039;-70
2022/02/23 05:07:34;;;;;;;7.32;1.75;;;;;;;2.42;100.00;99828.16;5062387;28;20025;-70
2022/02/23 05:10:00;;;;;;;3.78;1.48;;;;;;;2.39;100.00;99833.25;5062525;28;20044;-70
2022/02/23 05:12:26;;;;;;;7.10;2.25;;;;;;;2.30;100.00;99832.94;5065104;28;20021;-70
2022/02/23 05:14:52;;;;;;;4.55;1.63;;;;;;;2.28;100.00;99845.88;5066260;28;20048;-70
2022/02/23 05:17:18;;;;;;;9.40;3.35;;;;;;;2.29;100.00;99862.38;5066167;28;20033;-70
2022/02/23 05:19:44;;;;;;;4.47;1.75;;;;;;;2.31;100.00;99871.06;5066492;28;20194;-70
2022/02/23 05:22:10;;;;;;;3.75;1.85;;;;;;;2.24;100.00;99863.91;5066242;28;20364;-70
2022/02/23 05:24:35;;;;;;;3.63;2.03;;;;;;;2.23;100.00;99867.34;5066364;28;20058;-70
2022/02/23 05:27:02;;;;;;;6.68;2.47;;;;;;;2.22;100.00;99870.78;5066227;28;20032;-70
2022/02/23 05:29:28;;;;;;;5.53;2.65;;;;;;;2.18;100.00;99861.09;5065807;28;20265;-70
2022/02/23 05:31:54;;;;;;;5.53;2.28;;;;;;;2.14;100.00;99872.25;5066354;28;20021;-70
2022/02/23 05:34:20;;;;;;;4.50;1.75;;;;;;;2.06;100.00;99873.72;5066095;28;20018;-70
2022/02/23 05:36:46;;;;;;;7.97;2.50;;;;;;;1.88;100.00;99883.47;5067127;28;20028;-70
2022/02/23 05:39:12;;;;;;;6.18;2.50;;;;;;;1.82;100.00;99883.25;5067293;28;20028;-70
2022/02/23 05:41:37;;;;;;;10.70;2.45;;;;;;;1.79;100.00;99885.72;5067305;28;20025;-70
2022/02/23 05:44:03;;;;;;;5.22;2.83;;;;;;;1.76;100.00;99894.31;5067206;28;20047;-70
2022/02/23 05:46:29;;;;;;;4.25;1.85;;;;;;;1.77;100.00;99890.88;5067195;28;20029;-70
2022/02/23 05:48:55;;;;;;;10.82;2.05;;;;;;;1.81;100.00;99897.06;5067148;28;20039;-70
2022/02/23 05:51:28;;;;;;;4.50;2.03;;;;;;;1.78;100.00;99896.97;5067101;28;20035;-70
2022/02/23 05:53:53;;;;;;;3.38;1.67;;;;;;;1.76;100.00;99898.59;5067408;28;20264;-70
2022/02/23 05:56:19;;;;;;;7.70;2.00;;;;;;;1.64;100.00;99900.75;5067011;28;20033;-70
2022/02/23 05:58:44;;;;;;;3.90;2.10;;;;;;;1.62;100.00;99915.41;5066824;28;20044;-70
2022/02/23 06:01:11;;;;;;;4.57;1.85;;;;;;;1.36;100.00;99911.00;5066979;28;20017;-70
2022/02/23 06:03:36;;;;;;;8.77;1.90;;;;;;;1.30;100.00;99905.56;5067087;28;20366;-70
2022/02/23 06:06:02;;;;;;;4.47;1.88;;;;;;;1.34;100.00;99910.03;5066854;28;20025;-70
2022/02/23 06:08:28;;;;;;;3.47;2.10;;;;;;;1.39;100.00;99908.50;5066822;28;20209;-70
2022/02/23 06:10:53;;;;;;;8.90;1.85;;;;;;;1.40;100.00;99915.44;5066759;28;20024;-70
2022/02/23 06:13:18;;;;;;;6.13;2.28;;;;;;;1.37;100.00;99904.97;5066746;28;20016;-70
2022/02/23 06:15:44;;;;;;;9.05;2.85;;;;;;;1.37;100.00;99910.16;5066721;28;20024;-70
2022/02/23 06:18:09;;;;;;;13.95;3.35;;;;;;;1.30;100.00;99910.75;5066660;28;20031;-70
2022/02/23 06:20:35;;;;;;;10.65;3.08;;;;;;;1.21;100.00;99920.78;5066618;28;20084;-70
2022/02/23 06:23:00;;;;;;;8.40;2.17;;;;;;;1.15;100.00;99920.53;5065827;28;20438;-70
2022/02/23 06:25:26;;;;;;;6.90;2.92;;;;;;;1.21;100.00;99920.78;5066428;28;20028;-70
2022/02/23 06:27:51;;;;;;;10.75;2.45;;;;;;;1.17;100.00;99927.53;5066423;28;20067;-70
2022/02/23 06:30:17;;;;;;;16.85;2.92;;;;;;;1.18;100.00;99928.44;5066392;28;20044;-70
2022/02/23 06:32:42;;;;;;;5.88;3.25;;;;;;;1.15;100.00;99930.91;5066340;28;20339;-70
2022/02/23 06:35:08;;;;;;;10.23;2.72;;;;;;;1.19;100.00;99927.59;5066313;28;20082;-70
2022/02/23 06:37:33;;;;;;;5.78;2.22;;;;;;;1.22;100.00;99935.50;5066534;28;20023;-70
2022/02/23 06:39:59;;;;;;;6.60;2.75;;;;;;;1.21;100.00;99941.53;5066194;28;20016;-70
2022/02/23 06:42:25;;;;;;;4.55;1.88;;;;;;;1.11;100.00;99949.78;5066341;28;20244;-70
2022/02/23 06:44:51;;;;;;;3.03;1.67;;;;;;;1.12;100.00;99948.94;5066143;28;20028;-70
2022/02/23 06:47:16;;;;;;;10.23;2.53;;;;;;;1.05;100.00;99955.63;5066227;28;20020;-70
2022/02/23 06:49:42;;;;;;;6.82;2.83;;;;;;;1.12;100.00;99951.53;5065990;28;20066;-70
2022/02/23 06:52:10;;;;;;;5.97;2.60;;;;;;;1.14;100.00;99963.72;5066043;28;20032;-70
2022/02/23 06:54:36;;;;;;;9.02;2.90;;;;;;;1.23;100.00;99960.63;5065966;28;20021;-70
2022/02/23 06:57:05;;;;;;;3.08;1.55;;;;;;;1.28;100.00;99965.16;5065905;28;20035;-70
2022/02/23 06:59:31;;;;;;;7.75;2.42;;;;;;;1.30;100.00;99973.00;5065660;28;20060;-70
2022/02/23 07:01:56;;;;;;;4.75;2.20;;;;;;;1.44;100.00;99971.78;5065774;28;20020;-70
2022/02/23 07:04:22;;;;;;;6.95;2.92;;;;;;;1.51;100.00;99978.97;5065708;28;20317;-70
2022/02/23 07:06:47;;;;;;;3.40;2.33;;;;;;;1.65;100.00;99972.59;5065703;28;20051;-70
2022/02/23 07:09:13;;;;;;;7.72;2.90;;;;;;;1.80;100.00;99967.94;5065672;28;20017;-70
2022/02/23 07:11:38;;;;;;;6.40;2.80;;;;;;;1.89;100.00;99981.28;5065867;28;20024;-70
2022/02/23 07:14:05;;;;;;;6.00;2.67;;;;;;;1.92;100.00;99982.28;5065554;28;20017;-70
2022/02/23 07:16:30;;;;;;;9.52;2.70;;;;;;;1.93;100.00;99980.56;5065507;28;20097;-70
2022/02/23 07:18:56;;;;;;;11.38;3.17;;;;;;;1.87;100.00;99980.34;5065490;28;20025;-70
2022/02/23 07:21:21;;;;;;;5.22;2.97;;;;;;;1.92;100.00;99981.38;5065458;28;20027;-70
2022/02/23 07:23:47;;;;;;;8.63;4.20;;;;;;;1.91;100.00;99987.41;5065231;28;20045;-70
2022/02/23 07:26:16;;;;;;;7.22;2.85;;;;;;;2.11;100.00;99994.19;5065307;28;20020;-70
2022/02/23 07:28:44;;;;;;;10.50;4.05;;;;;;;2.04;100.00;99989.63;5065361;28;20035;-70
2022/02/23 07:31:14;;;;;;;11.65;4.35;;;;;;;2.07;100.00;99994.91;5065333;28;20255;-70
2022/02/23 07:33:41;;;;;;;9.77;4.25;;;;;;;2.20;100.00;99994.53;5064421;28;20062;-70
2022/02/23 07:36:07;;;;;;;18.38;6.65;;;;;;;2.40;100.00;99998.69;5064942;28;20020;-70
2022/02/23 07:38:32;;;;;;;21.42;7.50;;;;;;;2.60;100.00;99997.66;5065097;28;20092;-70
2022/02/23 07:40:58;;;;;;;14.07;6.43;;;;;;;2.65;99.70;100003.00;5065057;28;20255;-70
2022/02/23 07:43:24;;;;;;;11.63;4.93;;;;;;;2.86;99.55;100009.81;5065145;28;20045;-70
2022/02/23 07:45:53;;;;;;;12.82;5.07;;;;;;;3.07;98.48;100015.69;5064949;28;20031;-70
2022/02/23 07:48:19;;;;;;;8.68;5.18;;;;;;;3.20;98.01;100012.63;5064916;28;20047;-70
2022/02/23 07:50:45;;;;;;;17.63;8.57;;;;;;;3.22;97.37;100010.97;5064855;28;20017;-70
2022/02/23 07:53:10;;;;;;;15.55;7.03;;;;;;;3.26;97.54;100012.81;5064797;28;20054;-70
2022/02/23 07:55:37;;;;;;;12.43;5.85;;;;;;;3.30;97.66;100019.91;5064780;28;20017;-70
2022/02/23 07:58:04;;;;;;;10.45;5.75;;;;;;;3.50;98.28;100018.78;5064735;28;20025;-70
2022/02/23 08:00:30;;;;;;;10.88;4.88;;;;;;;3.61;97.94;100016.53;5064609;28;20033;-70
2022/02/23 08:02:55;;;;;;;11.68;5.55;;;;;;;3.68;98.10;100014.16;5064570;28;20032;-70
2022/02/23 08:05:21;;;;;;;8.73;4.22;;;;;;;3.83;97.68;100009.38;5064620;28;20025;-70
2022/02/23 08:07:46;;;;;;;6.68;3.65;;;;;;;3.75;97.23;100000.47;5064837;28;20378;-70
2022/02/23 08:10:12;;;;;;;8.13;4.05;;;;;;;4.01;97.25;100004.69;5064570;28;20300;-70
2022/02/23 08:12:37;;;;;;;9.55;5.00;;;;;;;4.32;95.98;100007.31;5064504;28;20013;-70
2022/02/23 08:20:41;;;;;;;14.45;6.75;;;;;;;5.03;93.66;100013.50;5063732;28;20041;-70
2022/02/23 08:23:06;;;;;;;12.65;6.00;;;;;;;6.04;93.45;100021.91;5064246;28;20316;-70
2022/02/23 08:25:32;;;;;;;14.95;6.10;;;;;;;6.86;90.09;100034.84;5064126;28;20024;-70
2022/02/23 08:27:58;;;;;;;11.60;5.25;;;;;;;7.55;85.61;100020.25;5064204;28;20024;-70
2022/02/23 08:30:24;;;;;;;10.90;5.30;;;;;;;8.00;82.91;100027.00;5064407;28;20044;-70
2022/02/23 08:32:50;;;;;;;11.88;4.75;;;;;;;9.09;82.92;100025.59;5064170;28;20032;-70
2022/02/23 08:35:15;;;;;;;8.80;3.78;;;;;;;10.00;79.60;100031.47;5064086;28;20028;-70
2022/02/23 08:37:41;;;;;;;10.65;4.68;;;;;;;10.55;75.91;100024.72;5064081;28;20025;-70
2022/02/23 08:40:07;;;;;;;6.75;3.15;;;;;;;11.18;74.24;100032.72;5064027;28;20039;-70
2022/02/23 08:42:33;;;;;;;8.90;4.10;;;;;;;11.58;71.92;100018.63;5063944;28;20032;-70
2022/02/23 08:44:58;;;;;;;10.15;5.22;;;;;;;12.20;71.47;100032.59;5063995;28;20017;-70
2022/02/23 08:47:25;;;;;;;10.48;4.80;;;;;;;12.46;70.23;100157.47;5063926;28;20036;-70
2022/02/23 08:49:54;;;;;;;9.10;4.65;;;;;;;12.66;68.54;100145.06;5064167;28;20032;-70
2022/02/23 08:52:19;;;;;;;11.48;5.75;;;;;;;12.69;69.61;100191.75;5063873;28;20048;-70
2022/02/23 08:54:44;;;;;;;11.15;4.93;;;;;;;12.78;69.88;100137.09;5063908;28;20198;-70
2022/02/23 08:57:10;;;;;;;12.68;5.57;;;;;;;13.49;69.13;100064.44;5063925;28;20031;-70
2022/02/23 08:59:36;;;;;;;13.30;5.80;;;;;;;14.09;66.67;100050.59;5063628;28;20047;-70
2022/02/23 09:02:02;;;;;;;12.63;5.97;;;;;;;14.60;63.20;100055.31;5063804;28;20260;-70
2022/02/23 09:04:28;;;;;;;12.60;5.53;;;;;;;14.53;64.33;100053.66;5063620;28;20036;-70
2022/02/23 09:06:53;;;;;;;7.85;3.85;;;;;;;14.31;67.23;100036.25;5063974;28;20021;-70
2022/02/23 09:09:20;;;;;;;6.60;3.30;;;;;;;14.52;65.99;100035.97;5063734;28;20028;-70
2022/02/23 09:11:47;;;;;;;12.20;5.03;;;;;;;14.47;66.38;100033.41;5063708;28;20035;-70
2022/02/23 09:14:16;;;;;;;10.63;3.70;;;;;;;14.99;63.83;100033.53;5063616;28;20084;-70
2022/02/23 09:16:44;;;;;;;11.27;4.22;;;;;;;15.31;60.99;100020.66;5063629;28;20221;-70
2022/02/23 09:19:09;;;;;;;7.68;3.53;;;;;;;15.58;62.24;100020.25;5063699;28;20383;-70
2022/02/23 09:21:34;;;;;;;6.22;2.85;;;;;;;15.97;60.18;100022.16;5063590;28;20020;-70
2022/02/23 09:24:00;;;;;;;8.77;3.08;;;;;;;15.85;59.09;100009.13;5063429;28;20029;-70
2022/02/23 09:26:28;;;;;;;9.90;3.17;;;;;;;16.21;58.55;100018.16;5063557;28;20228;-71
2022/02/23 09:28:54;;;;;;;15.52;3.75;;;;;;;16.20;58.54;100011.97;5063529;28;20024;-71
2022/02/23 09:31:19;;;;;;;15.50;3.53;;;;;;;15.62;58.08;100005.13;5063533;28;20312;-71
2022/02/23 09:33:45;;;;;;;9.85;3.28;;;;;;;15.99;56.75;100006.19;5063493;28;20024;-71
2022/02/23 09:36:11;;;;;;;12.50;3.15;;;;;;;16.00;55.82;99998.22;5063465;28;20191;-71
2022/02/23 09:38:36;;;;;;;9.25;2.40;;;;;;;15.41;61.08;99994.91;5063445;28;20212;-70
2022/02/23 09:41:05;;;;;;;12.82;3.10;;;;;;;16.07;56.61;100002.47;5063662;28;20021;-70
2022/02/23 09:43:31;;;;;;;9.20;3.08;;;;;;;15.97;57.02;99994.72;5063589;28;20088;-70
2022/02/23 09:45:57;;;;;;;13.25;2.88;;;;;;;16.20;55.99;100004.00;5063387;28;20025;-71
2022/02/23 09:48:25;;;;;;;15.27;3.67;;;;;;;16.50;55.71;100000.75;5063379;28;20013;-71
2022/02/23 09:50:51;;;;;;;8.82;2.63;;;;;;;16.62;55.05;100000.50;5063376;28;20031;-71
2022/02/23 09:53:18;;;;;;;8.88;2.60;;;;;;;16.64;54.80;99997.75;5063296;28;20016;-71
2022/02/23 09:55:44;;;;;;;11.73;2.55;;;;;;;16.27;54.41;99997.66;5063317;28;20025;-71
2022/02/23 09:58:10;;;;;;;14.05;2.80;;;;;;;16.33;57.44;99992.19;5065408;28;20017;-71
2022/02/23 10:00:37;;;;;;;19.77;2.95;;;;;;;15.97;60.72;99990.28;5066865;28;20355;-71
2022/02/23 10:03:04;;;;;;;10.25;2.20;;;;;;;16.19;60.40;99985.41;5066899;28;20024;-71
2022/02/23 10:05:37;;;;;;;8.43;3.03;;;;;;;16.40;57.96;99987.66;5066886;28;20016;-71
2022/02/23 10:08:09;;;;;;;9.40;2.83;;;;;;;16.42;58.15;99984.03;5066872;28;20028;-71
2022/02/23 10:10:39;;;;;;;16.38;3.17;;;;;;;15.47;60.61;99971.78;5066853;28;20040;-71
2022/02/23 10:13:07;;;;;;;17.58;2.85;;;;;;;15.47;58.30;99961.16;5066795;28;20032;-70
2022/02/23 10:15:41;;;;;;;12.80;2.25;;;;;;;16.22;54.60;99974.72;5066687;28;20021;-71
2022/02/23 10:18:11;;;;;;;13.00;3.05;;;;;;;15.94;58.31;99966.44;5066934;28;20032;-71
2022/02/23 10:20:39;;;;;;;12.75;2.03;;;;;;;15.81;57.92;99962.28;5066637;28;20066;-71
2022/02/23 10:23:20;;;;;;;6.72;2.22;;;;;;;16.28;57.36;99967.53;5066456;28;20259;-71
2022/02/23 10:26:01;;;;;;;6.78;2.03;;;;;;;16.14;54.75;99958.94;5066706;28;20025;-71
2022/02/23 10:28:32;;;;;;;7.00;1.92;;;;;;;15.96;56.78;99954.03;5066453;28;20028;-71
2022/02/23 10:31:03;;;;;;;8.43;1.95;;;;;;;15.91;56.71;99950.59;5066695;28;20025;-71
2022/02/23 10:33:30;;;;;;;12.95;2.10;;;;;;;15.81;58.38;99959.63;5066427;28;20021;-71
2022/02/23 10:36:05;;;;;;;8.80;1.98;;;;;;;15.62;56.90;99960.88;5066303;28;20029;-71
2022/02/23 10:38:39;;;;;;;9.48;1.63;;;;;;;15.71;58.79;99952.75;5066512;28;20084;-71
2022/02/23 10:41:22;;;;;;;8.25;1.95;;;;;;;15.54;57.89;99954.88;5066267;28;20039;-71
2022/02/23 10:43:47;;;;;;;5.68;1.83;;;;;;;15.02;59.21;99943.34;5064994;28;20084;-71
2022/02/23 10:46:16;;;;;;;6.68;2.05;;;;;;;15.39;60.79;99951.59;5066231;28;20040;-71
2022/02/23 10:48:44;;;;;;;8.73;2.50;;;;;;;15.41;59.20;99948.00;5066122;28;20028;-71
2022/02/23 10:51:18;;;;;;;11.48;2.35;;;;;;;15.56;58.22;99955.69;5066601;28;20032;-71
2022/02/23 10:53:43;;;;;;;10.43;1.75;;;;;;;15.33;58.62;99952.53;5066099;28;20086;-71
2022/02/23 10:56:27;;;;;;;5.57;1.58;;;;;;;15.01;58.09;99941.59;5065972;28;20028;-71
2022/02/23 10:59:04;;;;;;;10.02;2.40;;;;;;;15.23;57.88;99943.00;5065671;28;20055;-71
2022/02/23 11:01:30;;;;;;;8.73;2.30;;;;;;;15.07;57.29;99942.34;5065862;28;20028;-71
2022/02/23 11:03:56;;;;;;;10.30;1.75;;;;;;;14.83;56.92;99936.59;5065722;28;20025;-71
2022/02/23 11:06:23;;;;;;;10.55;1.73;;;;;;;14.93;57.13;99940.84;5065754;28;20033;-71
2022/02/23 11:08:53;;;;;;;9.95;2.05;;;;;;;15.10;58.81;99944.97;5065574;28;20035;-71
2022/02/23 11:11:20;;;;;;;5.75;1.85;;;;;;;14.91;59.98;99942.66;5065659;28;20032;-71
2022/02/23 11:13:46;;;;;;;14.70;2.50;;;;;;;14.90;63.46;99932.94;5065643;28;20031;-71
2022/02/23 11:16:15;;;;;;;5.30;1.40;;;;;;;15.03;60.24;99943.31;5065636;28;20025;-71
2022/02/23 11:18:42;;;;;;;6.97;1.70;;;;;;;14.75;60.59;99927.91;5065512;28;20320;-71
2022/02/23 11:21:11;;;;;;;16.30;3.05;;;;;;;14.80;62.45;99931.31;5065476;28;20269;-71
2022/02/23 11:23:38;;;;;;;4.22;1.50;;;;;;;14.76;61.46;99929.63;5065298;28;20021;-71
2022/02/23 11:26:05;;;;;;;6.38;1.65;;;;;;;14.44;59.26;99926.59;5065365;28;20044;-71
2022/02/23 11:28:34;;;;;;;12.38;1.83;;;;;;;14.42;62.35;99917.78;5065539;28;20024;-71
2022/02/23 11:31:10;;;;;;;10.15;1.92;;;;;;;14.69;62.45;99914.75;5065208;28;20028;-71
2022/02/23 11:33:58;;;;;;;10.52;2.55;;;;;;;14.59;62.35;99921.09;5065491;28;20084;-71